Clare Christine — V2DT7 — position and weather

sailwx.info

Track history (hours):
 
Tides and Currents Weather Stations Pressure Air Temp Water Temp Dewpoint Dewpoint Depression Visibility Wind Speed Wind Dir Waves Ship Positions

Clare Christine

Last reported at 2015-Jul-03 12:32 UTC. Time now 2015-Jul-04 08:26 UTC.
Position N 51°44' W 005°57'.

Length 89 m; draft 5.6 m.

Type: Cargo ship. MMSI: 305379000.

Date/timePositionNaut miles runAvg speedWind from/ knotsBaromVisibWave heightAir tempDewpointWater temp
2015-Jul-03 12:32N 51°44' W 005°57'9 9.2
2015-Jul-03 11:33N 51°53' W 005°54'10 7.8
2015-Jul-03 10:20N 52°02' W 005°51'5 6.7
2015-Jul-03 09:33N 52°07' W 005°50'7 6.5
2015-Jul-03 08:31N 52°14' W 005°48'6 6.0
2015-Jul-03 07:33N 52°20' W 005°47'8 7.6
2015-Jul-03 06:33N 52°27' W 005°44'9110.2
2015-Jul-02 21:33N 53°58' W 005°22'9 8.9
2015-Jul-02 20:33N 54°07' W 005°20'10 9.7
2015-Jul-02 19:34N 54°16' W 005°18'1010.1
2015-Jul-02 18:33N 54°26' W 005°19'1010.2
2015-Jul-02 17:34N 54°36' W 005°24'9 8.6
2015-Jul-02 16:34N 54°43' W 005°33'1010.1
2015-Jul-02 15:32N 54°40' W 005°51'3 2.8
2015-Jul-02 14:27N 54°37' W 005°54'0 0.0
2015-Jul-02 13:27N 54°37' W 005°54'0 0.0
2015-Jul-02 12:30N 54°37' W 005°54'0 0.0
2015-Jul-02 11:33N 54°37' W 005°54'0 0.0
2015-Jul-02 10:24N 54°37' W 005°54'0 0.0
2015-Jul-02 09:24N 54°37' W 005°54'0 0.0
2015-Jul-02 07:27N 54°37' W 005°54'0 0.0
2015-Jul-02 05:27N 54°37' W 005°54'0 0.0
2015-Jul-02 04:33N 54°37' W 005°54'0 0.0
2015-Jul-02 03:33N 54°37' W 005°54'0 0.0
2015-Jul-02 02:33N 54°37' W 005°54'0 0.0
2015-Jul-02 01:33N 54°37' W 005°54'0 0.0
2015-Jul-01 20:30N 54°37' W 005°54'0 0.0
2015-Jul-01 19:33N 54°37' W 005°54'0 0.0
2015-Jul-01 18:30N 54°37' W 005°54'0 0.0
2015-Jul-01 17:33N 54°37' W 005°54'0 0.0
2015-Jul-01 16:33N 54°37' W 005°54'0 0.0
2015-Jul-01 15:27N 54°37' W 005°54'0 0.0
2015-Jul-01 14:33N 54°37' W 005°54'0 0.1
2015-Jul-01 13:30N 54°37' W 005°54'0 0.1
2015-Jul-01 12:24N 54°37' W 005°54'0 0.0
2015-Jul-01 11:30N 54°37' W 005°54'0 0.0
2015-Jul-01 10:27N 54°37' W 005°54'0 0.0
2015-Jul-01 09:30N 54°37' W 005°54'0 0.0
2015-Jul-01 08:15N 54°37' W 005°54'0 0.0
2015-Jul-01 07:30N 54°37' W 005°54'0 0.0
2015-Jul-01 06:30N 54°37' W 005°54'0 0.0
2015-Jul-01 05:33N 54°37' W 005°54'0 0.0
2015-Jul-01 04:33N 54°37' W 005°54'0 0.0
2015-Jul-01 03:33N 54°37' W 005°54'0 0.0
2015-Jul-01 02:33N 54°37' W 005°54'0 0.0
2015-Jul-01 01:33N 54°37' W 005°54'0 0.0
2015-Jul-01 00:24N 54°37' W 005°54'0 0.0
2015-Jun-30 23:30N 54°37' W 005°54'0 0.0
2015-Jun-30 22:30N 54°37' W 005°54'0 0.0
2015-Jun-30 21:15N 54°37' W 005°54'0 0.0
2015-Jun-30 20:30N 54°37' W 005°54'0 0.0
2015-Jun-30 19:24N 54°37' W 005°54'0 0.0
2015-Jun-30 18:18N 54°37' W 005°54'0 0.0
2015-Jun-30 17:33N 54°37' W 005°54'0 0.0
2015-Jun-30 16:33N 54°37' W 005°54'0 0.0
2015-Jun-30 15:27N 54°37' W 005°54'0 0.0
2015-Jun-30 14:21N 54°37' W 005°54'0 0.0
2015-Jun-30 07:18N 54°37' W 005°54'0 0.0
2015-Jun-30 06:18N 54°37' W 005°54'0 0.0
2015-Jun-30 05:33N 54°37' W 005°54'0 0.0
2015-Jun-30 04:30N 54°37' W 005°54'0 0.0
2015-Jun-30 03:30N 54°37' W 005°54'0 0.0
2015-Jun-30 02:33N 54°37' W 005°54'0 0.0
2015-Jun-30 01:33N 54°37' W 005°54'0 0.0
2015-Jun-30 00:33N 54°37' W 005°54'0 0.0
2015-Jun-29 23:24N 54°37' W 005°54'0 0.0
2015-Jun-29 22:33N 54°37' W 005°54'0 0.0
2015-Jun-29 21:33N 54°37' W 005°54'0 0.0
2015-Jun-29 20:33N 54°37' W 005°54'0 0.0
2015-Jun-29 19:20N 54°37' W 005°54'3 3.3
2015-Jun-29 18:30N 54°39' W 005°51'9 9.4
2015-Jun-29 17:33N 54°43' W 005°37'8 7.7
2015-Jun-29 16:33N 54°39' W 005°25'9 9.1
2015-Jun-29 15:33N 54°31' W 005°20'9 9.5
2015-Jun-29 14:33N 54°21' W 005°17'1010.1
2015-Jun-29 13:33N 54°11' W 005°19'11 9.9
2015-Jun-29 12:28N 54°00' W 005°21'8110.2
2015-Jun-29 04:33N 52°40' W 005°37'1110.6
2015-Jun-29 03:33N 52°30' W 005°40'9 9.5
2015-Jun-29 02:33N 52°21' W 005°42'8 8.1
2015-Jun-29 01:33N 52°12' W 005°43'7 7.4
2015-Jun-29 00:33N 52°05' W 005°44'17 7.6
2015-Jun-28 22:20N 51°48' W 005°48'130 5.9
2015-Jun-28 00:13N 50°06' W 003°41'6 9.4
2015-Jun-27 23:33N 50°07' W 003°32'10 9.8
2015-Jun-27 22:33N 50°08' W 003°17'1010.0
2015-Jun-27 21:33N 50°10' W 003°02'10 9.9
2015-Jun-27 20:33N 50°12' W 002°46'10 9.4
2015-Jun-27 19:33N 50°14' W 002°32'8 8.5
2015-Jun-27 18:33N 50°15' W 002°19'8 7.6
2015-Jun-27 17:33N 50°17' W 002°07'7 7.0
2015-Jun-27 16:33N 50°18' W 001°56'7 6.7
2015-Jun-27 15:33N 50°19' W 001°46'7 7.0
2015-Jun-27 14:33N 50°21' W 001°35'10 8.1
2015-Jun-27 13:18N 50°22' W 001°20'20 9.7
2015-Jun-27 11:14N 50°26' W 000°49'36 9.8
2015-Jun-27 07:30N 50°33' E 000°07'8 8.6
2015-Jun-27 06:33N 50°36' E 000°19'8 8.2
2015-Jun-27 05:33N 50°38' E 000°32'8 8.1
2015-Jun-27 04:33N 50°42' E 000°43'8 8.4
2015-Jun-27 03:33N 50°47' E 000°54'12 9.4
2015-Jun-27 02:17N 50°55' E 001°09'810.1
2015-Jun-27 01:31N 50°60' E 001°18'9 9.9
2015-Jun-27 00:33N 51°06' E 001°30'9 8.8
2015-Jun-26 23:34N 51°11' E 001°40'8 7.8
2015-Jun-26 22:33N 51°19' E 001°44'8 7.5
2015-Jun-26 21:33N 51°26' E 001°46'8 7.9
2015-Jun-26 20:33N 51°34' E 001°46'9 8.6
2015-Jun-26 19:33N 51°43' E 001°44'9 8.7
2015-Jun-26 18:33N 51°51' E 001°41'8 8.4
2015-Jun-26 17:33N 51°55' E 001°29'7 7.5
2015-Jun-26 16:33N 51°58' E 001°17'6 5.5
2015-Jun-26 15:33N 52°01' E 001°11'1 1.2
2015-Jun-26 14:25N 52°02' E 001°09'0 0.0
2015-Jun-26 13:31N 52°02' E 001°09'0 0.0
2015-Jun-26 12:31N 52°02' E 001°09'0 0.0
2015-Jun-26 11:31N 52°02' E 001°09'0 0.0
2015-Jun-26 10:31N 52°02' E 001°09'0 0.0
2015-Jun-26 09:31N 52°02' E 001°09'0 0.0
2015-Jun-26 08:19N 52°02' E 001°09'0 0.0
2015-Jun-26 07:28N 52°02' E 001°09'0 0.0
2015-Jun-26 06:28N 52°02' E 001°09'0 0.0
2015-Jun-26 05:28N 52°02' E 001°09'0 0.0
2015-Jun-26 04:31N 52°02' E 001°09'0 0.0
2015-Jun-26 03:25N 52°02' E 001°09'0 0.0
2015-Jun-26 02:31N 52°02' E 001°09'0 0.0
2015-Jun-26 01:31N 52°02' E 001°09'0 0.0
2015-Jun-26 00:31N 52°02' E 001°09'0 0.0
2015-Jun-25 23:31N 52°02' E 001°09'0 0.0
2015-Jun-25 22:28N 52°02' E 001°09'0 0.0
2015-Jun-25 21:31N 52°02' E 001°09'0 0.0
2015-Jun-25 20:31N 52°02' E 001°09'0 0.0
2015-Jun-25 19:31N 52°02' E 001°09'0 0.0
2015-Jun-25 18:31N 52°02' E 001°09'0 0.0
2015-Jun-25 17:31N 52°02' E 001°09'0 0.0
2015-Jun-25 16:31N 52°02' E 001°09'0 0.1
2015-Jun-25 15:31N 52°02' E 001°10'0 0.0
2015-Jun-25 14:31N 52°02' E 001°10'0 0.0
2015-Jun-25 13:31N 52°02' E 001°10'0 0.0
2015-Jun-25 12:31N 52°02' E 001°10'0 0.0
2015-Jun-25 11:31N 52°02' E 001°10'0 0.0
2015-Jun-25 10:31N 52°02' E 001°10'0 0.0
2015-Jun-25 09:31N 52°02' E 001°10'0 0.0
2015-Jun-25 08:31N 52°02' E 001°10'0 0.0
2015-Jun-25 07:31N 52°02' E 001°10'0 0.0
2015-Jun-25 06:31N 52°02' E 001°10'0 0.0
2015-Jun-25 05:31N 52°02' E 001°10'0 0.0
2015-Jun-25 04:31N 52°02' E 001°10'0 0.0
2015-Jun-25 03:31N 52°02' E 001°10'0 0.0
2015-Jun-25 02:31N 52°02' E 001°10'0 0.0
2015-Jun-25 01:31N 52°02' E 001°10'0 0.0
2015-Jun-25 00:31N 52°02' E 001°10'0 0.0
2015-Jun-24 23:31N 52°02' E 001°10'0 0.0
2015-Jun-24 22:31N 52°02' E 001°10'0 0.0
2015-Jun-24 21:31N 52°02' E 001°10'0 0.0
2015-Jun-24 20:31N 52°02' E 001°10'0 0.0
2015-Jun-24 19:31N 52°02' E 001°10'0 0.0
2015-Jun-24 18:31N 52°02' E 001°10'0 0.1
2015-Jun-24 17:31N 52°02' E 001°10'0 0.0
2015-Jun-24 16:31N 52°02' E 001°10'0 0.0
2015-Jun-24 15:31N 52°02' E 001°10'0 0.0
2015-Jun-24 14:31N 52°02' E 001°10'0 0.0
2015-Jun-24 13:31N 52°02' E 001°10'0 0.0
2015-Jun-24 12:25N 52°02' E 001°10'0 0.0
2015-Jun-24 11:31N 52°02' E 001°10'0 0.0
2015-Jun-24 10:28N 52°02' E 001°10'0 0.0
2015-Jun-24 09:31N 52°02' E 001°10'0 0.0
2015-Jun-24 08:31N 52°02' E 001°10'0 0.0
2015-Jun-24 07:28N 52°02' E 001°10'0 0.0
2015-Jun-24 06:31N 52°02' E 001°10'0 0.0
2015-Jun-24 05:31N 52°02' E 001°10'0 0.0
2015-Jun-24 04:31N 52°02' E 001°10'0 0.0
2015-Jun-24 03:31N 52°02' E 001°10'0 0.0
2015-Jun-24 02:28N 52°02' E 001°10'0 0.0
2015-Jun-24 01:31N 52°02' E 001°10'0 0.0
2015-Jun-24 00:28N 52°02' E 001°10'0 0.0
2015-Jun-23 23:28N 52°02' E 001°10'0 0.0
2015-Jun-23 22:22N 52°02' E 001°10'0 0.0
2015-Jun-23 21:22N 52°02' E 001°10'0 0.0
2015-Jun-23 20:28N 52°02' E 001°10'0 0.0
2015-Jun-23 19:28N 52°02' E 001°10'0 0.0
2015-Jun-23 19:04N 52°02' E 001°10'  
Track history (hours):
 
Tides and Currents Weather Stations Pressure Air Temp Water Temp Dewpoint Dewpoint Depression Visibility Wind Speed Wind Dir Waves Ship Positions

Clare Christine

Last reported at 2015-Jul-03 12:32 UTC. Time now 2015-Jul-04 08:26 UTC.
Position N 51°44' W 005°57'.

Length 89 m; draft 5.6 m.

Type: Cargo ship. MMSI: 305379000.

Date/timePositionNaut miles runAvg speedWind from/ knotsBaromVisibWave heightAir tempDewpointWater temp
2015-Jul-03 12:32N 51°44' W 005°57'9 9.2
2015-Jul-03 11:33N 51°53' W 005°54'10 7.8
2015-Jul-03 10:20N 52°02' W 005°51'5 6.7
2015-Jul-03 09:33N 52°07' W 005°50'7 6.5
2015-Jul-03 08:31N 52°14' W 005°48'6 6.0
2015-Jul-03 07:33N 52°20' W 005°47'8 7.6
2015-Jul-03 06:33N 52°27' W 005°44'9110.2
2015-Jul-02 21:33N 53°58' W 005°22'9 8.9
2015-Jul-02 20:33N 54°07' W 005°20'10 9.7
2015-Jul-02 19:34N 54°16' W 005°18'1010.1
2015-Jul-02 18:33N 54°26' W 005°19'1010.2
2015-Jul-02 17:34N 54°36' W 005°24'9 8.6
2015-Jul-02 16:34N 54°43' W 005°33'1010.1
2015-Jul-02 15:32N 54°40' W 005°51'3 2.8
2015-Jul-02 14:27N 54°37' W 005°54'0 0.0
2015-Jul-02 13:27N 54°37' W 005°54'0 0.0
2015-Jul-02 12:30N 54°37' W 005°54'0 0.0
2015-Jul-02 11:33N 54°37' W 005°54'0 0.0
2015-Jul-02 10:24N 54°37' W 005°54'0 0.0
2015-Jul-02 09:24N 54°37' W 005°54'0 0.0
2015-Jul-02 07:27N 54°37' W 005°54'0 0.0
2015-Jul-02 05:27N 54°37' W 005°54'0 0.0
2015-Jul-02 04:33N 54°37' W 005°54'0 0.0
2015-Jul-02 03:33N 54°37' W 005°54'0 0.0
2015-Jul-02 02:33N 54°37' W 005°54'0 0.0
2015-Jul-02 01:33N 54°37' W 005°54'0 0.0
2015-Jul-01 20:30N 54°37' W 005°54'0 0.0
2015-Jul-01 19:33N 54°37' W 005°54'0 0.0
2015-Jul-01 18:30N 54°37' W 005°54'0 0.0
2015-Jul-01 17:33N 54°37' W 005°54'0 0.0
2015-Jul-01 16:33N 54°37' W 005°54'0 0.0
2015-Jul-01 15:27N 54°37' W 005°54'0 0.0
2015-Jul-01 14:33N 54°37' W 005°54'0 0.1
2015-Jul-01 13:30N 54°37' W 005°54'0 0.1
2015-Jul-01 12:24N 54°37' W 005°54'0 0.0
2015-Jul-01 11:30N 54°37' W 005°54'0 0.0
2015-Jul-01 10:27N 54°37' W 005°54'0 0.0
2015-Jul-01 09:30N 54°37' W 005°54'0 0.0
2015-Jul-01 08:15N 54°37' W 005°54'0 0.0
2015-Jul-01 07:30N 54°37' W 005°54'0 0.0
2015-Jul-01 06:30N 54°37' W 005°54'0 0.0
2015-Jul-01 05:33N 54°37' W 005°54'0 0.0
2015-Jul-01 04:33N 54°37' W 005°54'0 0.0
2015-Jul-01 03:33N 54°37' W 005°54'0 0.0
2015-Jul-01 02:33N 54°37' W 005°54'0 0.0
2015-Jul-01 01:33N 54°37' W 005°54'0 0.0
2015-Jul-01 00:24N 54°37' W 005°54'0 0.0
2015-Jun-30 23:30N 54°37' W 005°54'0 0.0
2015-Jun-30 22:30N 54°37' W 005°54'0 0.0
2015-Jun-30 21:15N 54°37' W 005°54'0 0.0
2015-Jun-30 20:30N 54°37' W 005°54'0 0.0
2015-Jun-30 19:24N 54°37' W 005°54'0 0.0
2015-Jun-30 18:18N 54°37' W 005°54'0 0.0
2015-Jun-30 17:33N 54°37' W 005°54'0 0.0
2015-Jun-30 16:33N 54°37' W 005°54'0 0.0
2015-Jun-30 15:27N 54°37' W 005°54'0 0.0
2015-Jun-30 14:21N 54°37' W 005°54'0 0.0
2015-Jun-30 07:18N 54°37' W 005°54'0 0.0
2015-Jun-30 06:18N 54°37' W 005°54'0 0.0
2015-Jun-30 05:33N 54°37' W 005°54'0 0.0
2015-Jun-30 04:30N 54°37' W 005°54'0 0.0
2015-Jun-30 03:30N 54°37' W 005°54'0 0.0
2015-Jun-30 02:33N 54°37' W 005°54'0 0.0
2015-Jun-30 01:33N 54°37' W 005°54'0 0.0
2015-Jun-30 00:33N 54°37' W 005°54'0 0.0
2015-Jun-29 23:24N 54°37' W 005°54'0 0.0
2015-Jun-29 22:33N 54°37' W 005°54'0 0.0
2015-Jun-29 21:33N 54°37' W 005°54'0 0.0
2015-Jun-29 20:33N 54°37' W 005°54'0 0.0
2015-Jun-29 19:20N 54°37' W 005°54'3 3.3
2015-Jun-29 18:30N 54°39' W 005°51'9 9.4
2015-Jun-29 17:33N 54°43' W 005°37'8 7.7
2015-Jun-29 16:33N 54°39' W 005°25'9 9.1
2015-Jun-29 15:33N 54°31' W 005°20'9 9.5
2015-Jun-29 14:33N 54°21' W 005°17'1010.1
2015-Jun-29 13:33N 54°11' W 005°19'11 9.9
2015-Jun-29 12:28N 54°00' W 005°21'8110.2
2015-Jun-29 04:33N 52°40' W 005°37'1110.6
2015-Jun-29 03:33N 52°30' W 005°40'9 9.5
2015-Jun-29 02:33N 52°21' W 005°42'8 8.1
2015-Jun-29 01:33N 52°12' W 005°43'7 7.4
2015-Jun-29 00:33N 52°05' W 005°44'17 7.6
2015-Jun-28 22:20N 51°48' W 005°48'130 5.9
2015-Jun-28 00:13N 50°06' W 003°41'6 9.4
2015-Jun-27 23:33N 50°07' W 003°32'10 9.8
2015-Jun-27 22:33N 50°08' W 003°17'1010.0
2015-Jun-27 21:33N 50°10' W 003°02'10 9.9
2015-Jun-27 20:33N 50°12' W 002°46'10 9.4
2015-Jun-27 19:33N 50°14' W 002°32'8 8.5
2015-Jun-27 18:33N 50°15' W 002°19'8 7.6
2015-Jun-27 17:33N 50°17' W 002°07'7 7.0
2015-Jun-27 16:33N 50°18' W 001°56'7 6.7
2015-Jun-27 15:33N 50°19' W 001°46'7 7.0
2015-Jun-27 14:33N 50°21' W 001°35'10 8.1
2015-Jun-27 13:18N 50°22' W 001°20'20 9.7
2015-Jun-27 11:14N 50°26' W 000°49'36 9.8
2015-Jun-27 07:30N 50°33' E 000°07'8 8.6
2015-Jun-27 06:33N 50°36' E 000°19'8 8.2
2015-Jun-27 05:33N 50°38' E 000°32'8 8.1
2015-Jun-27 04:33N 50°42' E 000°43'8 8.4
2015-Jun-27 03:33N 50°47' E 000°54'12 9.4
2015-Jun-27 02:17N 50°55' E 001°09'810.1
2015-Jun-27 01:31N 50°60' E 001°18'9 9.9
2015-Jun-27 00:33N 51°06' E 001°30'9 8.8
2015-Jun-26 23:34N 51°11' E 001°40'8 7.8
2015-Jun-26 22:33N 51°19' E 001°44'8 7.5
2015-Jun-26 21:33N 51°26' E 001°46'8 7.9
2015-Jun-26 20:33N 51°34' E 001°46'9 8.6
2015-Jun-26 19:33N 51°43' E 001°44'9 8.7
2015-Jun-26 18:33N 51°51' E 001°41'8 8.4
2015-Jun-26 17:33N 51°55' E 001°29'7 7.5
2015-Jun-26 16:33N 51°58' E 001°17'6 5.5
2015-Jun-26 15:33N 52°01' E 001°11'1 1.2
2015-Jun-26 14:25N 52°02' E 001°09'0 0.0
2015-Jun-26 13:31N 52°02' E 001°09'0 0.0
2015-Jun-26 12:31N 52°02' E 001°09'0 0.0
2015-Jun-26 11:31N 52°02' E 001°09'0 0.0
2015-Jun-26 10:31N 52°02' E 001°09'0 0.0
2015-Jun-26 09:31N 52°02' E 001°09'0 0.0
2015-Jun-26 08:19N 52°02' E 001°09'0 0.0
2015-Jun-26 07:28N 52°02' E 001°09'0 0.0
2015-Jun-26 06:28N 52°02' E 001°09'0 0.0
2015-Jun-26 05:28N 52°02' E 001°09'0 0.0
2015-Jun-26 04:31N 52°02' E 001°09'0 0.0
2015-Jun-26 03:25N 52°02' E 001°09'0 0.0
2015-Jun-26 02:31N 52°02' E 001°09'0 0.0
2015-Jun-26 01:31N 52°02' E 001°09'0 0.0
2015-Jun-26 00:31N 52°02' E 001°09'0 0.0
2015-Jun-25 23:31N 52°02' E 001°09'0 0.0
2015-Jun-25 22:28N 52°02' E 001°09'0 0.0
2015-Jun-25 21:31N 52°02' E 001°09'0 0.0
2015-Jun-25 20:31N 52°02' E 001°09'0 0.0
2015-Jun-25 19:31N 52°02' E 001°09'0 0.0
2015-Jun-25 18:31N 52°02' E 001°09'0 0.0
2015-Jun-25 17:31N 52°02' E 001°09'0 0.0
2015-Jun-25 16:31N 52°02' E 001°09'0 0.1
2015-Jun-25 15:31N 52°02' E 001°10'0 0.0
2015-Jun-25 14:31N 52°02' E 001°10'0 0.0
2015-Jun-25 13:31N 52°02' E 001°10'0 0.0
2015-Jun-25 12:31N 52°02' E 001°10'0 0.0
2015-Jun-25 11:31N 52°02' E 001°10'0 0.0
2015-Jun-25 10:31N 52°02' E 001°10'0 0.0
2015-Jun-25 09:31N 52°02' E 001°10'0 0.0
2015-Jun-25 08:31N 52°02' E 001°10'0 0.0
2015-Jun-25 07:31N 52°02' E 001°10'0 0.0
2015-Jun-25 06:31N 52°02' E 001°10'0 0.0
2015-Jun-25 05:31N 52°02' E 001°10'0 0.0
2015-Jun-25 04:31N 52°02' E 001°10'0 0.0
2015-Jun-25 03:31N 52°02' E 001°10'0 0.0
2015-Jun-25 02:31N 52°02' E 001°10'0 0.0
2015-Jun-25 01:31N 52°02' E 001°10'0 0.0
2015-Jun-25 00:31N 52°02' E 001°10'0 0.0
2015-Jun-24 23:31N 52°02' E 001°10'0 0.0
2015-Jun-24 22:31N 52°02' E 001°10'0 0.0
2015-Jun-24 21:31N 52°02' E 001°10'0 0.0
2015-Jun-24 20:31N 52°02' E 001°10'0 0.0
2015-Jun-24 19:31N 52°02' E 001°10'0 0.0
2015-Jun-24 18:31N 52°02' E 001°10'0 0.1
2015-Jun-24 17:31N 52°02' E 001°10'0 0.0
2015-Jun-24 16:31N 52°02' E 001°10'0 0.0
2015-Jun-24 15:31N 52°02' E 001°10'0 0.0
2015-Jun-24 14:31N 52°02' E 001°10'0 0.0
2015-Jun-24 13:31N 52°02' E 001°10'0 0.0
2015-Jun-24 12:25N 52°02' E 001°10'0 0.0
2015-Jun-24 11:31N 52°02' E 001°10'0 0.0
2015-Jun-24 10:28N 52°02' E 001°10'0 0.0
2015-Jun-24 09:31N 52°02' E 001°10'0 0.0
2015-Jun-24 08:31N 52°02' E 001°10'0 0.0
2015-Jun-24 07:28N 52°02' E 001°10'0 0.0
2015-Jun-24 06:31N 52°02' E 001°10'0 0.0
2015-Jun-24 05:31N 52°02' E 001°10'0 0.0
2015-Jun-24 04:31N 52°02' E 001°10'0 0.0
2015-Jun-24 03:31N 52°02' E 001°10'0 0.0
2015-Jun-24 02:28N 52°02' E 001°10'0 0.0
2015-Jun-24 01:31N 52°02' E 001°10'0 0.0
2015-Jun-24 00:28N 52°02' E 001°10'0 0.0
2015-Jun-23 23:28N 52°02' E 001°10'0 0.0
2015-Jun-23 22:22N 52°02' E 001°10'0 0.0
2015-Jun-23 21:22N 52°02' E 001°10'0 0.0
2015-Jun-23 20:28N 52°02' E 001°10'0 0.0
2015-Jun-23 19:28N 52°02' E 001°10'0 0.0
2015-Jun-23 19:04N 52°02' E 001°10'  

Dump ship's entire track history